createdAt,value
2023-03-03T05:30:29.902Z,0.00
2023-03-03T05:31:30.898Z,0.00
2023-03-03T05:32:30.891Z,0.00
2023-03-03T05:33:30.849Z,0.00
2023-03-03T05:34:30.843Z,0.00
2023-03-03T05:35:30.851Z,0.00
2023-03-03T05:36:30.838Z,0.00
2023-03-03T05:37:30.805Z,0.00
2023-03-03T05:38:30.809Z,0.00
2023-03-03T05:39:30.788Z,0.00
2023-03-03T05:40:30.799Z,0.00
2023-03-03T05:41:30.764Z,4.00
2023-03-03T05:42:30.819Z,4.00
2023-03-03T05:43:30.742Z,0.00
2023-03-03T05:44:30.743Z,4.00
2023-03-03T05:45:30.745Z,4.00
2023-03-03T05:46:30.748Z,4.00
2023-03-03T05:47:30.702Z,4.00
2023-03-03T05:48:30.684Z,4.00
2023-03-03T05:49:30.683Z,4.00
2023-03-03T05:50:30.684Z,8.00
2023-03-03T05:51:30.673Z,12.00
2023-03-03T05:52:30.660Z,8.00
2023-03-03T05:53:30.644Z,12.00
2023-03-03T05:54:30.625Z,12.00
2023-03-03T05:55:30.640Z,12.00
2023-03-03T05:56:30.595Z,16.00
2023-03-03T05:57:30.587Z,20.00
2023-03-03T05:58:30.580Z,20.00
2023-03-03T05:59:30.590Z,24.00
2023-03-03T06:00:30.587Z,24.00
2023-03-03T06:01:30.650Z,32.00
2023-03-03T06:02:30.538Z,32.00
2023-03-03T06:03:30.515Z,32.00
2023-03-03T06:04:30.519Z,40.00
2023-03-03T06:05:30.527Z,44.00
2023-03-03T06:06:30.491Z,48.00
2023-03-03T06:07:30.512Z,56.00
2023-03-03T06:08:30.488Z,60.00
2023-03-03T06:09:30.466Z,64.00
2023-03-03T06:10:30.502Z,64.00
2023-03-03T06:11:30.442Z,68.00
2023-03-03T06:12:30.432Z,68.00
2023-03-03T06:13:30.424Z,72.00
2023-03-03T06:14:30.416Z,76.00
2023-03-03T06:15:30.505Z,80.00
2023-03-03T06:16:30.424Z,84.00
2023-03-03T06:17:30.378Z,92.00
2023-03-03T06:18:30.368Z,100.00
2023-03-03T06:19:30.378Z,104.00
2023-03-03T06:20:30.358Z,112.00
2023-03-03T06:21:30.335Z,116.00
2023-03-03T06:22:30.320Z,120.00
2023-03-03T06:23:30.313Z,124.00
2023-03-03T06:24:30.374Z,132.00
2023-03-03T06:25:30.302Z,136.00
2023-03-03T06:26:30.290Z,144.00
2023-03-03T06:27:30.264Z,152.00
2023-03-03T06:28:30.247Z,156.00
2023-03-03T06:29:30.247Z,164.00
2023-03-03T06:30:30.257Z,172.00
2023-03-03T06:31:30.234Z,184.00
2023-03-03T06:32:30.216Z,192.00
2023-03-03T06:33:30.192Z,204.00
2023-03-03T06:34:30.191Z,208.00
2023-03-03T06:35:30.268Z,204.00
2023-03-03T06:36:30.181Z,220.00
2023-03-03T06:37:30.148Z,224.00
2023-03-03T06:38:30.147Z,232.00
2023-03-03T06:39:30.127Z,236.00
2023-03-03T06:40:30.136Z,240.00
2023-03-03T06:41:30.118Z,248.00
2023-03-03T06:42:30.110Z,276.00
2023-03-03T06:43:30.086Z,312.00
2023-03-03T06:44:30.078Z,336.00
2023-03-03T06:45:30.155Z,340.00
2023-03-03T06:46:30.053Z,352.00
2023-03-03T06:47:30.043Z,356.00
2023-03-03T06:48:30.042Z,356.00
2023-03-03T06:49:30.018Z,372.00
2023-03-03T06:50:30.019Z,388.00
2023-03-03T06:51:30.019Z,392.00
2023-03-03T06:52:29.980Z,404.00
2023-03-03T06:53:29.970Z,380.00
2023-03-03T06:54:30.973Z,376.00
2023-03-03T06:55:29.990Z,412.00
2023-03-03T06:56:29.935Z,444.00
2023-03-03T06:57:29.932Z,460.00
2023-03-03T06:58:29.934Z,472.00
2023-03-03T06:59:29.940Z,476.00
2023-03-03T07:00:31.213Z,480.00
2023-03-03T07:01:29.947Z,460.00
2023-03-03T07:02:29.883Z,504.00
2023-03-03T07:03:29.910Z,528.00
2023-03-03T07:04:29.951Z,512.00
2023-03-03T07:05:29.871Z,508.00
2023-03-03T07:06:29.842Z,508.00
2023-03-03T07:07:29.823Z,512.00
2023-03-03T07:08:29.834Z,516.00
2023-03-03T07:09:29.809Z,528.00
2023-03-03T07:10:38.563Z,548.00
2023-03-03T07:11:29.781Z,576.00
2023-03-03T07:12:29.776Z,600.00
2023-03-03T07:13:29.771Z,600.00
2023-03-03T07:14:29.757Z,568.00
2023-03-03T07:15:29.774Z,552.00
2023-03-03T07:16:29.785Z,544.00
2023-03-03T07:17:29.961Z,540.00
2023-03-03T07:18:29.733Z,540.00
2023-03-03T07:19:29.700Z,572.00
2023-03-03T07:20:29.753Z,616.00
2023-03-03T07:21:29.684Z,684.00
2023-03-03T07:22:29.737Z,740.00
2023-03-03T07:23:29.653Z,788.00
2023-03-03T07:24:29.665Z,804.00
2023-03-03T07:25:29.669Z,832.00
2023-03-03T07:26:29.621Z,864.00
2023-03-03T07:27:29.620Z,736.00
2023-03-03T07:28:29.656Z,640.00
2023-03-03T07:29:29.608Z,720.00
2023-03-03T07:30:29.714Z,836.00
2023-03-03T07:31:29.604Z,844.00
2023-03-03T07:32:29.610Z,772.00
2023-03-03T07:33:29.552Z,776.00
2023-03-03T07:34:29.567Z,804.00
2023-03-03T07:35:29.571Z,824.00
2023-03-03T07:36:29.552Z,840.00
2023-03-03T07:37:29.517Z,864.00
2023-03-03T07:38:29.496Z,880.00
2023-03-03T07:39:29.501Z,940.00
2023-03-03T07:40:29.473Z,992.00
2023-03-03T07:41:29.487Z,984.00
2023-03-03T07:42:29.492Z,976.00
2023-03-03T07:43:29.469Z,1016.00
2023-03-03T07:44:29.442Z,1104.00
2023-03-03T07:45:29.421Z,1184.00
2023-03-03T07:46:29.495Z,1276.00
2023-03-03T07:47:29.405Z,1344.00
2023-03-03T07:48:29.389Z,1340.00
2023-03-03T07:49:29.413Z,1420.00
2023-03-03T07:50:29.373Z,1376.00
2023-03-03T07:51:29.384Z,1256.00
2023-03-03T07:52:29.382Z,1204.00
2023-03-03T07:53:29.348Z,1212.00
2023-03-03T07:54:30.111Z,1284.00
2023-03-03T07:55:29.309Z,1344.00
2023-03-03T07:56:29.330Z,1400.00
2023-03-03T07:57:29.303Z,1372.00
2023-03-03T07:58:29.283Z,1352.00
2023-03-03T07:59:29.276Z,1448.00
2023-03-03T08:00:29.410Z,1388.00
2023-03-03T08:01:29.276Z,1344.00
2023-03-03T08:02:29.246Z,1432.00
2023-03-03T08:03:29.244Z,1420.00
2023-03-03T08:04:29.304Z,1332.00
2023-03-03T08:05:29.239Z,1408.00
2023-03-03T08:06:29.212Z,1640.00
2023-03-03T08:07:29.194Z,1628.00
2023-03-03T08:08:29.176Z,1552.00
2023-03-03T08:09:29.155Z,1684.00
2023-03-03T08:10:29.202Z,1776.00
2023-03-03T08:11:29.163Z,1796.00
2023-03-03T08:12:29.140Z,1792.00
2023-03-03T08:13:29.115Z,1680.00
2023-03-03T08:14:29.099Z,1528.00
2023-03-03T08:15:29.126Z,1452.00
2023-03-03T08:16:29.103Z,1444.00
2023-03-03T08:17:29.065Z,1444.00
2023-03-03T08:18:29.056Z,1700.00
2023-03-03T08:19:29.073Z,1856.00
2023-03-03T08:20:29.067Z,1832.00
2023-03-03T08:21:29.039Z,1956.00
2023-03-03T08:22:28.996Z,1904.00
2023-03-03T08:23:29.010Z,1708.00
2023-03-03T08:24:28.982Z,1532.00
2023-03-03T08:25:28.981Z,1548.00
2023-03-03T08:26:28.980Z,1568.00
2023-03-03T08:27:28.947Z,1640.00
2023-03-03T08:28:28.931Z,1580.00
2023-03-03T08:29:28.949Z,1660.00
2023-03-03T08:30:28.907Z,1716.00
2023-03-03T08:31:40.750Z,1816.00
2023-03-03T08:32:29.064Z,1724.00
2023-03-03T08:33:28.895Z,1688.00
2023-03-03T08:34:28.882Z,1668.00
2023-03-03T08:35:28.910Z,1648.00
2023-03-03T08:36:28.856Z,1800.00
2023-03-03T08:37:28.835Z,1812.00
2023-03-03T08:38:28.822Z,1840.00
2023-03-03T08:39:28.811Z,2020.00
2023-03-03T08:40:28.810Z,1972.00
2023-03-03T08:41:28.811Z,1784.00
2023-03-03T08:42:28.787Z,1744.00
2023-03-03T08:43:28.777Z,1900.00
2023-03-03T08:44:28.748Z,2008.00
2023-03-03T08:45:28.740Z,1920.00
2023-03-03T08:46:28.888Z,1912.00
2023-03-03T08:47:28.731Z,2012.00
2023-03-03T08:48:28.711Z,2136.00
2023-03-03T08:49:28.701Z,2132.00
2023-03-03T08:50:28.686Z,2232.00
2023-03-03T08:51:28.725Z,2872.00
2023-03-03T08:52:28.662Z,3052.00
2023-03-03T08:53:28.682Z,2788.00
2023-03-03T08:54:28.655Z,2548.00
2023-03-03T08:55:28.657Z,2824.00
2023-03-03T08:56:28.678Z,2864.00
2023-03-03T08:57:28.620Z,2672.00
2023-03-03T08:58:35.034Z,2776.00
2023-03-03T08:59:28.607Z,2784.00
2023-03-03T09:00:28.627Z,2856.00
2023-03-03T09:01:28.638Z,3008.00
2023-03-03T09:02:28.573Z,3248.00
2023-03-03T09:03:28.579Z,3216.00
2023-03-03T09:04:28.570Z,3320.00
2023-03-03T09:05:28.533Z,3540.00
2023-03-03T09:06:28.550Z,3364.00
2023-03-03T09:07:28.507Z,3208.00
2023-03-03T09:08:28.501Z,3188.00
2023-03-03T09:09:28.492Z,3292.00
2023-03-03T09:10:28.472Z,3108.00
2023-03-03T09:11:28.506Z,2868.00
2023-03-03T09:12:28.453Z,3264.00
2023-03-03T09:13:28.441Z,3716.00
2023-03-03T09:14:28.434Z,3548.00
2023-03-03T09:15:28.405Z,3488.00
2023-03-03T09:16:28.480Z,3356.00
2023-03-03T09:17:28.409Z,3380.00
2023-03-03T09:18:28.381Z,2956.00
2023-03-03T09:19:28.376Z,2900.00
2023-03-03T09:20:28.362Z,2780.00
2023-03-03T09:21:28.371Z,2932.00
2023-03-03T09:22:28.350Z,2872.00
2023-03-03T09:23:28.327Z,3076.00
2023-03-03T09:24:28.322Z,3176.00
2023-03-03T09:25:28.317Z,3268.00
2023-03-03T09:26:28.544Z,3628.00
2023-03-03T09:27:28.282Z,3536.00
2023-03-03T09:28:28.275Z,3648.00
2023-03-03T09:29:28.256Z,3576.00
2023-03-03T09:30:28.280Z,3512.00
2023-03-03T09:31:28.327Z,3408.00
2023-03-03T09:32:28.289Z,3452.00
2023-03-03T09:33:28.267Z,3660.00
2023-03-03T09:34:28.201Z,4112.00
2023-03-03T09:35:28.212Z,3088.00
2023-03-03T09:36:28.194Z,2700.00
2023-03-03T09:37:28.165Z,2780.00
2023-03-03T09:38:28.157Z,2968.00
2023-03-03T09:39:28.151Z,3336.00
2023-03-03T09:40:28.150Z,3376.00
2023-03-03T09:41:28.158Z,3152.00
2023-03-03T09:42:28.146Z,3084.00
2023-03-03T09:43:28.116Z,3092.00
2023-03-03T09:44:28.109Z,3248.00
2023-03-03T09:45:28.091Z,3044.00
2023-03-03T09:46:28.141Z,3092.00
2023-03-03T09:47:28.062Z,3248.00
2023-03-03T09:48:28.056Z,3064.00
2023-03-03T09:49:28.053Z,2936.00
2023-03-03T09:50:28.026Z,2600.00
2023-03-03T09:51:28.050Z,2640.00
2023-03-03T09:52:27.997Z,2860.00
2023-03-03T09:53:27.991Z,2760.00
2023-03-03T09:54:27.975Z,2748.00
2023-03-03T09:55:27.992Z,3004.00
2023-03-03T09:56:27.968Z,3108.00
2023-03-03T09:57:27.958Z,2916.00
2023-03-03T09:58:27.931Z,2740.00
2023-03-03T09:59:27.944Z,2768.00
2023-03-03T10:00:27.912Z,2888.00
2023-03-03T10:01:27.947Z,3088.00
2023-03-03T10:02:27.930Z,3060.00
2023-03-03T10:03:27.908Z,3080.00
2023-03-03T10:04:27.920Z,3452.00
2023-03-03T10:05:27.901Z,3620.00
2023-03-03T10:06:27.881Z,3708.00
2023-03-03T10:07:27.847Z,3884.00
2023-03-03T10:08:29.473Z,4220.00
2023-03-03T10:09:27.818Z,3972.00
2023-03-03T10:10:27.874Z,3580.00
2023-03-03T10:11:27.860Z,3800.00
2023-03-03T10:12:27.779Z,3736.00
2023-03-03T10:13:27.762Z,3352.00
2023-03-03T10:14:27.772Z,3300.00
2023-03-03T10:15:27.770Z,3296.00
2023-03-03T10:16:27.804Z,3392.00
2023-03-03T10:17:27.726Z,3572.00
2023-03-03T10:18:27.722Z,3768.00
2023-03-03T10:19:27.701Z,4064.00
2023-03-03T10:20:30.924Z,3844.00
2023-03-03T10:21:27.707Z,3508.00
2023-03-03T10:22:27.694Z,3720.00
2023-03-03T10:23:27.756Z,3832.00
2023-03-03T10:24:27.651Z,3828.00
2023-03-03T10:25:27.644Z,4020.00
2023-03-03T10:26:43.528Z,4384.00
2023-03-03T10:27:27.653Z,4196.00
2023-03-03T10:28:27.630Z,3716.00
2023-03-03T10:29:30.409Z,3828.00
2023-03-03T10:30:39.885Z,4260.00
2023-03-03T10:31:29.179Z,4140.00
2023-03-03T10:32:27.814Z,4340.00
2023-03-03T10:33:27.762Z,4520.00
2023-03-03T10:34:27.563Z,4496.00
2023-03-03T10:35:27.547Z,4692.00
2023-03-03T10:36:29.434Z,4744.00
2023-03-03T10:37:27.519Z,4660.00
2023-03-03T10:38:27.489Z,4608.00
2023-03-03T10:39:27.490Z,4716.00
2023-03-03T10:40:27.471Z,4956.00
2023-03-03T10:41:27.491Z,4052.00
2023-03-03T10:42:27.448Z,3900.00
2023-03-03T10:43:32.009Z,3556.00
2023-03-03T10:44:27.448Z,4092.00
2023-03-03T10:45:27.479Z,4396.00
2023-03-03T10:46:27.431Z,4972.00
2023-03-03T10:47:27.430Z,4204.00
2023-03-03T10:48:27.390Z,4080.00
2023-03-03T10:49:27.401Z,3652.00
2023-03-03T10:50:27.363Z,3308.00
2023-03-03T10:51:27.373Z,3136.00
2023-03-03T10:52:27.350Z,3112.00
2023-03-03T10:53:27.326Z,2992.00
2023-03-03T10:54:27.310Z,3596.00
2023-03-03T10:55:27.311Z,4316.00
2023-03-03T10:56:27.317Z,4152.00
2023-03-03T10:57:27.297Z,3764.00
2023-03-03T10:58:27.303Z,3596.00
2023-03-03T10:59:27.259Z,3744.00
2023-03-03T11:00:27.249Z,3928.00
2023-03-03T11:01:27.327Z,3796.00
2023-03-03T11:02:27.230Z,4036.00
2023-03-03T11:03:27.235Z,4528.00
2023-03-03T11:04:27.235Z,4512.00
2023-03-03T11:05:27.209Z,4520.00
2023-03-03T11:06:27.206Z,4400.00
2023-03-03T11:07:27.172Z,4124.00
2023-03-03T11:08:27.176Z,4172.00
2023-03-03T11:09:27.163Z,4044.00
2023-03-03T11:10:27.140Z,3720.00
2023-03-03T11:11:27.164Z,3652.00
2023-03-03T11:12:27.162Z,3920.00
2023-03-03T11:13:27.152Z,3988.00
2023-03-03T11:14:27.145Z,3472.00
2023-03-03T11:15:27.091Z,3364.00
2023-03-03T11:16:27.094Z,2980.00
2023-03-03T11:17:27.064Z,2648.00
2023-03-03T11:18:27.062Z,2812.00
2023-03-03T11:19:27.046Z,3000.00
2023-03-03T11:20:27.073Z,3140.00
2023-03-03T11:21:27.042Z,3212.00
2023-03-03T11:22:27.082Z,3608.00
2023-03-03T11:23:27.606Z,3700.00
2023-03-03T11:24:26.990Z,3776.00
2023-03-03T11:25:26.970Z,4112.00
2023-03-03T11:26:26.989Z,5164.00
2023-03-03T11:27:26.996Z,4856.00
2023-03-03T11:28:26.943Z,4780.00
2023-03-03T11:29:26.949Z,4936.00
2023-03-03T11:30:26.937Z,4376.00
2023-03-03T11:31:28.791Z,4564.00
2023-03-03T11:32:26.939Z,5092.00
2023-03-03T11:33:26.890Z,5016.00
2023-03-03T11:34:26.876Z,4940.00
2023-03-03T11:35:26.898Z,4148.00
2023-03-03T11:36:26.906Z,3760.00
2023-03-03T11:37:26.859Z,4124.00
2023-03-03T11:38:26.837Z,5144.00
2023-03-03T11:39:26.838Z,5776.00
2023-03-03T11:40:26.810Z,6188.00
2023-03-03T11:41:26.800Z,6584.00
2023-03-03T11:42:26.814Z,7180.00
2023-03-03T11:43:36.457Z,6960.00
2023-03-03T11:44:26.777Z,6788.00
2023-03-03T11:45:26.755Z,6180.00
2023-03-03T11:46:26.804Z,6056.00
2023-03-03T11:47:27.014Z,6572.00
2023-03-03T11:48:26.764Z,7128.00
2023-03-03T11:49:26.740Z,6744.00
2023-03-03T11:50:26.699Z,6508.00
2023-03-03T11:51:26.686Z,6648.00
2023-03-03T11:52:26.711Z,6732.00
2023-03-03T11:53:26.679Z,6804.00
2023-03-03T11:54:26.680Z,7164.00
2023-03-03T11:55:26.649Z,7316.00
2023-03-03T11:56:26.644Z,7472.00
2023-03-03T11:57:26.645Z,7216.00
2023-03-03T11:58:26.627Z,7132.00
2023-03-03T11:59:26.616Z,7600.00
2023-03-03T12:00:26.597Z,7256.00
2023-03-03T12:01:26.592Z,7320.00
2023-03-03T12:02:26.636Z,7396.00
2023-03-03T12:03:26.565Z,6672.00
2023-03-03T12:04:26.541Z,5704.00
2023-03-03T12:05:26.601Z,6036.00
2023-03-03T12:06:26.525Z,6596.00
2023-03-03T12:07:26.601Z,6596.00
2023-03-03T12:08:26.501Z,6696.00
2023-03-03T12:09:26.508Z,6780.00
2023-03-03T12:10:26.489Z,7312.00
2023-03-03T12:11:26.471Z,6828.00
2023-03-03T12:12:26.478Z,6580.00
2023-03-03T12:13:26.449Z,6664.00
2023-03-03T12:14:26.429Z,6572.00
2023-03-03T12:15:26.428Z,6660.00
2023-03-03T12:16:26.476Z,7008.00
2023-03-03T12:17:26.439Z,7528.00
2023-03-03T12:18:26.386Z,7972.00
2023-03-03T12:19:26.408Z,7600.00
2023-03-03T12:20:26.370Z,6896.00
2023-03-03T12:21:26.364Z,6608.00
2023-03-03T12:22:26.376Z,6412.00
2023-03-03T12:23:26.342Z,6184.00
2023-03-03T12:24:26.329Z,6196.00
2023-03-03T12:25:26.313Z,5676.00
2023-03-03T12:26:26.300Z,5140.00
2023-03-03T12:27:26.305Z,4752.00
2023-03-03T12:28:26.280Z,4796.00
2023-03-03T12:29:26.266Z,4980.00
2023-03-03T12:30:26.255Z,5012.00
2023-03-03T12:31:26.305Z,5036.00
2023-03-03T12:32:26.300Z,5084.00
2023-03-03T12:33:26.240Z,5076.00
2023-03-03T12:34:26.214Z,4952.00
2023-03-03T12:35:26.231Z,4816.00
2023-03-03T12:36:26.203Z,4932.00
2023-03-03T12:37:26.198Z,4816.00
2023-03-03T12:38:26.178Z,4668.00
2023-03-03T12:39:34.693Z,4608.00
2023-03-03T12:40:26.151Z,4280.00
2023-03-03T12:41:26.138Z,4156.00
2023-03-03T12:42:26.140Z,3980.00
2023-03-03T12:43:26.111Z,3932.00
2023-03-03T12:44:26.105Z,3788.00
2023-03-03T12:45:26.095Z,3936.00
2023-03-03T12:46:29.446Z,4004.00
2023-03-03T12:47:26.094Z,3696.00
2023-03-03T12:48:26.158Z,3544.00
2023-03-03T12:49:26.048Z,3328.00
2023-03-03T12:50:26.033Z,3132.00
2023-03-03T12:51:26.078Z,2876.00
2023-03-03T12:52:26.049Z,2776.00
2023-03-03T12:53:26.023Z,2812.00
2023-03-03T12:54:26.009Z,2696.00
2023-03-03T12:55:26.011Z,2372.00
2023-03-03T12:56:25.991Z,2200.00
2023-03-03T12:57:25.987Z,2052.00
2023-03-03T12:58:25.965Z,1896.00
2023-03-03T12:59:25.936Z,1808.00
2023-03-03T13:00:26.030Z,1988.00
2023-03-03T13:01:25.921Z,2112.00
2023-03-03T13:02:25.929Z,1804.00
2023-03-03T13:03:31.747Z,1684.00
2023-03-03T13:04:25.946Z,1688.00
2023-03-03T13:05:25.883Z,1696.00
2023-03-03T13:06:25.857Z,1840.00
2023-03-03T13:07:25.873Z,1980.00
2023-03-03T13:08:25.831Z,1892.00
2023-03-03T13:09:25.824Z,1808.00
2023-03-03T13:11:26.511Z,1764.00
2023-03-03T13:12:27.538Z,1688.00
2023-03-03T13:13:27.496Z,1688.00
2023-03-03T13:14:27.477Z,1804.00
2023-03-03T13:15:32.615Z,1864.00
2023-03-03T13:16:40.346Z,2040.00
2023-03-03T13:17:27.557Z,1956.00
2023-03-03T13:18:27.445Z,2096.00
2023-03-03T13:19:27.445Z,2164.00
2023-03-03T13:20:27.423Z,2136.00
2023-03-03T13:21:27.420Z,2112.00
2023-03-03T13:22:27.422Z,2260.00
2023-03-03T13:23:27.423Z,2456.00
2023-03-03T13:24:27.379Z,2592.00
2023-03-03T13:25:27.433Z,2620.00
2023-03-03T13:26:27.391Z,2772.00
2023-03-03T13:27:27.384Z,3108.00
2023-03-03T13:28:27.352Z,3420.00
2023-03-03T13:29:27.324Z,3332.00
2023-03-03T13:30:27.299Z,3096.00
2023-03-03T13:31:27.341Z,3416.00
2023-03-03T13:32:27.335Z,3624.00
2023-03-03T13:33:27.307Z,3524.00
2023-03-03T13:34:27.274Z,3492.00
2023-03-03T13:35:27.318Z,3736.00
2023-03-03T13:36:27.245Z,4040.00
2023-03-03T13:37:27.262Z,4564.00
2023-03-03T13:38:27.226Z,4724.00
2023-03-03T13:39:27.208Z,4572.00
2023-03-03T13:40:27.228Z,4464.00
2023-03-03T13:41:27.189Z,4036.00
2023-03-03T13:42:27.203Z,3992.00
2023-03-03T13:43:27.170Z,4128.00
2023-03-03T13:44:27.164Z,4068.00
2023-03-03T13:45:27.211Z,4136.00
2023-03-03T13:46:27.146Z,3936.00
2023-03-03T13:47:27.185Z,3636.00
2023-03-03T13:48:27.136Z,3692.00
2023-03-03T13:49:27.118Z,3752.00
2023-03-03T13:50:27.101Z,3888.00
2023-03-03T13:51:27.135Z,3852.00
2023-03-03T13:52:27.115Z,4172.00
2023-03-03T13:53:27.083Z,3588.00
2023-03-03T13:54:27.123Z,3200.00
2023-03-03T13:55:27.041Z,2804.00
2023-03-03T13:56:27.040Z,2504.00
2023-03-03T13:57:27.053Z,2492.00
2023-03-03T13:58:27.020Z,2720.00
2023-03-03T13:59:26.993Z,3044.00
2023-03-03T14:00:26.997Z,3092.00
2023-03-03T14:01:27.009Z,3072.00
2023-03-03T14:02:26.995Z,3464.00
2023-03-03T14:03:26.955Z,3776.00
2023-03-03T14:04:26.958Z,4364.00
2023-03-03T14:05:26.957Z,5348.00
2023-03-03T14:06:26.932Z,6492.00
2023-03-03T14:07:26.935Z,7216.00
2023-03-03T14:08:26.940Z,7248.00
2023-03-03T14:09:26.892Z,5552.00
2023-03-03T14:10:26.875Z,5148.00
2023-03-03T14:11:26.866Z,4616.00
2023-03-03T14:12:26.907Z,4736.00
2023-03-03T14:13:26.858Z,4960.00
2023-03-03T14:14:26.830Z,4412.00
2023-03-03T14:15:26.815Z,3828.00
2023-03-03T14:16:26.869Z,3900.00
2023-03-03T14:17:26.853Z,4044.00
2023-03-03T14:18:26.793Z,3828.00
2023-03-03T14:19:26.794Z,3296.00
2023-03-03T14:20:26.936Z,3100.00
2023-03-03T14:21:26.764Z,3088.00
2023-03-03T14:22:26.786Z,2976.00
2023-03-03T14:23:26.756Z,2856.00
2023-03-03T14:24:26.779Z,2936.00
2023-03-03T14:25:26.731Z,3184.00
2023-03-03T14:26:26.726Z,3648.00
2023-03-03T14:27:26.710Z,4172.00
2023-03-03T14:28:26.682Z,4012.00
2023-03-03T14:29:26.676Z,3752.00
2023-03-03T14:30:26.671Z,4020.00
2023-03-03T14:31:26.669Z,4072.00
2023-03-03T14:32:43.094Z,3932.00
2023-03-03T14:33:26.696Z,3908.00
2023-03-03T14:34:26.674Z,4288.00
2023-03-03T14:35:26.663Z,4684.00
2023-03-03T14:36:28.647Z,4400.00
2023-03-03T14:37:26.664Z,4080.00
2023-03-03T14:38:26.583Z,4096.00
2023-03-03T14:39:26.620Z,4064.00
2023-03-03T14:40:26.575Z,4016.00
2023-03-03T14:41:26.545Z,3808.00
2023-03-03T14:42:26.560Z,3424.00
2023-03-03T14:43:26.525Z,3080.00
2023-03-03T14:44:26.514Z,2920.00
2023-03-03T14:45:29.809Z,2860.00
2023-03-03T14:46:26.544Z,2888.00
2023-03-03T14:47:26.513Z,2864.00
2023-03-03T14:48:26.503Z,3008.00
2023-03-03T14:49:26.487Z,2940.00
2023-03-03T14:50:26.478Z,2708.00
2023-03-03T14:51:26.480Z,2808.00
2023-03-03T14:52:26.474Z,3016.00
2023-03-03T14:53:26.437Z,3352.00
2023-03-03T14:54:26.434Z,3964.00
2023-03-03T14:55:26.428Z,3504.00
2023-03-03T14:56:26.411Z,3440.00
2023-03-03T14:57:26.390Z,3280.00
2023-03-03T14:58:26.366Z,3040.00
2023-03-03T14:59:26.385Z,3044.00
2023-03-03T15:00:26.346Z,3000.00
2023-03-03T15:01:26.515Z,3124.00
2023-03-03T15:02:26.345Z,3136.00
2023-03-03T15:03:26.323Z,3080.00
2023-03-03T15:04:26.325Z,3040.00
2023-03-03T15:05:26.294Z,2948.00
2023-03-03T15:06:26.312Z,2760.00
2023-03-03T15:07:26.325Z,2800.00
2023-03-03T15:08:26.252Z,2596.00
2023-03-03T15:09:26.279Z,2520.00
2023-03-03T15:10:26.234Z,2564.00
2023-03-03T15:11:26.254Z,2736.00
2023-03-03T15:12:26.241Z,3812.00
2023-03-03T15:13:26.213Z,4772.00
2023-03-03T15:14:26.214Z,4160.00
2023-03-03T15:15:26.199Z,3712.00
2023-03-03T15:16:26.183Z,3384.00
2023-03-03T15:17:26.211Z,3492.00
2023-03-03T15:18:26.218Z,3352.00
2023-03-03T15:19:26.157Z,3132.00
2023-03-03T15:20:26.169Z,2860.00
2023-03-03T15:21:26.109Z,2472.00
2023-03-03T15:22:26.166Z,2276.00
2023-03-03T15:23:26.103Z,2096.00
2023-03-03T15:24:26.128Z,2168.00
2023-03-03T15:25:41.891Z,2708.00
2023-03-03T15:26:26.123Z,2976.00
2023-03-03T15:27:26.099Z,2876.00
2023-03-03T15:28:26.067Z,2880.00
2023-03-03T15:29:26.034Z,3268.00
2023-03-03T15:30:26.049Z,3120.00
2023-03-03T15:31:26.091Z,2884.00
2023-03-03T15:32:26.169Z,2632.00
2023-03-03T15:33:26.000Z,2516.00
2023-03-03T15:34:25.999Z,2304.00
2023-03-03T15:35:26.055Z,2536.00
2023-03-03T15:36:25.956Z,2240.00
2023-03-03T15:37:25.979Z,2348.00
2023-03-03T15:38:25.929Z,2392.00
2023-03-03T15:39:25.913Z,2428.00
2023-03-03T15:40:25.903Z,2120.00
2023-03-03T15:41:25.915Z,1916.00
2023-03-03T15:42:25.904Z,1816.00
2023-03-03T15:43:25.868Z,1764.00
2023-03-03T15:44:25.868Z,1624.00
2023-03-03T15:45:25.843Z,1512.00
2023-03-03T15:46:25.854Z,1496.00
2023-03-03T15:47:25.841Z,1372.00
2023-03-03T15:48:25.834Z,1332.00
2023-03-03T15:49:25.808Z,1252.00
2023-03-03T15:50:25.803Z,1148.00
2023-03-03T15:51:25.801Z,1128.00
2023-03-03T15:52:25.792Z,1156.00
2023-03-03T15:53:25.761Z,1148.00
2023-03-03T15:54:25.760Z,1060.00
2023-03-03T15:55:25.741Z,1056.00
2023-03-03T15:56:25.728Z,1016.00
2023-03-03T15:57:25.742Z,988.00
2023-03-03T15:58:25.736Z,964.00
2023-03-03T15:59:25.705Z,948.00
2023-03-03T16:00:25.678Z,916.00
2023-03-03T16:01:25.718Z,872.00
2023-03-03T16:02:25.754Z,804.00
2023-03-03T16:03:25.672Z,740.00
2023-03-03T16:04:25.667Z,716.00
2023-03-03T16:05:25.635Z,684.00
2023-03-03T16:06:25.624Z,656.00
2023-03-03T16:07:25.606Z,628.00
2023-03-03T16:08:25.638Z,628.00
2023-03-03T16:09:25.588Z,624.00
2023-03-03T16:10:25.584Z,612.00
2023-03-03T16:11:25.562Z,620.00
2023-03-03T16:12:25.553Z,568.00
2023-03-03T16:13:25.575Z,544.00
2023-03-03T16:14:25.534Z,536.00
2023-03-03T16:15:25.548Z,476.00
2023-03-03T16:16:25.628Z,460.00
2023-03-03T16:17:25.501Z,456.00
2023-03-03T16:18:25.507Z,448.00
2023-03-03T16:19:25.488Z,448.00
2023-03-03T16:20:25.491Z,440.00
2023-03-03T16:21:25.453Z,420.00
2023-03-03T16:22:25.439Z,420.00
2023-03-03T16:23:25.490Z,412.00
2023-03-03T16:24:25.428Z,408.00
2023-03-03T16:25:25.401Z,404.00
2023-03-03T16:26:25.400Z,412.00
2023-03-03T16:27:25.439Z,400.00
2023-03-03T16:28:25.438Z,416.00
2023-03-03T16:29:27.837Z,420.00
2023-03-03T16:30:25.420Z,372.00
2023-03-03T16:31:25.358Z,352.00
2023-03-03T16:32:25.377Z,344.00
2023-03-03T16:33:25.359Z,324.00
2023-03-03T16:34:25.316Z,328.00
2023-03-03T16:35:25.411Z,312.00
2023-03-03T16:36:25.296Z,276.00
2023-03-03T16:37:25.294Z,272.00
2023-03-03T16:38:25.316Z,252.00
2023-03-03T16:39:25.265Z,228.00
2023-03-03T16:40:25.252Z,224.00
2023-03-03T16:41:25.244Z,220.00
2023-03-03T16:42:25.259Z,212.00
2023-03-03T16:43:25.234Z,216.00
2023-03-03T16:44:25.208Z,208.00
2023-03-03T16:45:25.343Z,196.00
2023-03-03T16:46:25.199Z,188.00
2023-03-03T16:47:25.199Z,180.00
2023-03-03T16:48:25.193Z,168.00
2023-03-03T16:49:25.168Z,148.00
2023-03-03T16:50:25.271Z,136.00
2023-03-03T16:51:25.163Z,124.00
2023-03-03T16:52:25.123Z,116.00
2023-03-03T16:53:25.149Z,104.00
2023-03-03T16:54:25.102Z,100.00
2023-03-03T16:55:25.085Z,100.00
2023-03-03T16:56:25.078Z,92.00
2023-03-03T16:57:25.076Z,84.00
2023-03-03T16:58:25.068Z,76.00
2023-03-03T16:59:25.057Z,68.00
2023-03-03T17:00:25.028Z,60.00
2023-03-03T17:01:25.143Z,52.00
2023-03-03T17:02:25.019Z,48.00
2023-03-03T17:03:25.028Z,44.00
2023-03-03T17:04:25.038Z,36.00
2023-03-03T17:05:24.980Z,36.00
2023-03-03T17:06:24.977Z,32.00
2023-03-03T17:07:24.964Z,28.00
2023-03-03T17:08:24.955Z,24.00
2023-03-03T17:09:32.661Z,20.00
2023-03-03T17:10:24.918Z,20.00
2023-03-03T17:11:24.907Z,16.00
2023-03-03T17:12:24.911Z,16.00
2023-03-03T17:13:24.906Z,12.00
2023-03-03T17:14:24.889Z,12.00
2023-03-03T17:15:24.886Z,8.00
2023-03-03T17:16:24.889Z,8.00
2023-03-03T17:17:24.850Z,4.00
2023-03-03T17:18:24.877Z,8.00
2023-03-03T17:19:25.062Z,4.00
2023-03-03T17:20:24.848Z,4.00
2023-03-03T17:21:24.791Z,4.00
2023-03-03T17:22:24.776Z,4.00
2023-03-03T17:23:24.817Z,0.00
2023-03-03T17:24:24.764Z,4.00
2023-03-03T17:25:24.755Z,4.00
2023-03-03T17:26:24.753Z,4.00
2023-03-03T17:27:24.731Z,4.00
2023-03-03T17:28:24.728Z,0.00
2023-03-03T17:29:24.704Z,0.00
2023-03-03T17:30:24.700Z,4.00
2023-03-03T17:31:24.774Z,0.00
2023-03-03T17:32:24.781Z,0.00
2023-03-03T17:33:24.679Z,0.00
2023-03-03T17:34:24.658Z,0.00
2023-03-03T17:35:24.677Z,0.00
2023-03-03T17:36:24.636Z,0.00
2023-03-03T17:37:24.636Z,0.00
2023-03-03T17:38:24.626Z,0.00
2023-03-03T17:39:24.611Z,0.00
2023-03-03T17:40:24.616Z,0.00
2023-03-03T17:41:24.574Z,0.00
2023-03-03T17:42:24.588Z,0.00
2023-03-03T17:43:24.587Z,0.00
2023-03-03T17:44:24.541Z,0.00
2023-03-03T17:45:24.532Z,0.00
2023-03-03T17:46:24.544Z,0.00
2023-03-03T17:47:24.529Z,0.00
2023-03-03T17:48:24.541Z,0.00
2023-03-03T17:49:24.500Z,0.00